sensor_id;sensor_type;location;lat;lon;timestamp;P1;durP1;ratioP1;P2;durP2;ratioP2
18320;SDS011;54904;54.350;18.664;2023-10-13T00:01:47;1.17;;;0.90;;
18320;SDS011;54904;54.350;18.664;2023-10-13T00:04:17;1.13;;;0.97;;
18320;SDS011;54904;54.350;18.664;2023-10-13T00:06:47;1.53;;;1.00;;
18320;SDS011;54904;54.350;18.664;2023-10-13T00:09:14;3.23;;;1.30;;
18320;SDS011;54904;54.350;18.664;2023-10-13T00:11:42;1.93;;;1.17;;
18320;SDS011;54904;54.350;18.664;2023-10-13T00:14:11;1.40;;;1.00;;
18320;SDS011;54904;54.350;18.664;2023-10-13T00:16:41;2.03;;;1.07;;
18320;SDS011;54904;54.350;18.664;2023-10-13T00:19:27;1.83;;;1.20;;
18320;SDS011;54904;54.350;18.664;2023-10-13T00:22:02;1.53;;;0.90;;
18320;SDS011;54904;54.350;18.664;2023-10-13T00:24:34;1.17;;;1.00;;
18320;SDS011;54904;54.350;18.664;2023-10-13T00:27:08;1.70;;;1.10;;
18320;SDS011;54904;54.350;18.664;2023-10-13T00:29:50;1.50;;;0.90;;
18320;SDS011;54904;54.350;18.664;2023-10-13T00:32:29;1.20;;;1.10;;
18320;SDS011;54904;54.350;18.664;2023-10-13T00:34:58;4.50;;;1.10;;
18320;SDS011;54904;54.350;18.664;2023-10-13T00:37:30;0.97;;;0.80;;
18320;SDS011;54904;54.350;18.664;2023-10-13T00:40:07;2.10;;;1.13;;
18320;SDS011;54904;54.350;18.664;2023-10-13T00:42:44;2.07;;;1.30;;
18320;SDS011;54904;54.350;18.664;2023-10-13T00:45:16;1.73;;;1.10;;
18320;SDS011;54904;54.350;18.664;2023-10-13T00:47:43;1.90;;;1.10;;
18320;SDS011;54904;54.350;18.664;2023-10-13T00:50:16;1.43;;;1.03;;
18320;SDS011;54904;54.350;18.664;2023-10-13T00:52:43;1.13;;;0.90;;
18320;SDS011;54904;54.350;18.664;2023-10-13T00:55:16;0.90;;;0.90;;
18320;SDS011;54904;54.350;18.664;2023-10-13T00:57:49;1.57;;;1.10;;
18320;SDS011;54904;54.350;18.664;2023-10-13T01:00:22;0.93;;;0.67;;
18320;SDS011;54904;54.350;18.664;2023-10-13T01:02:52;1.50;;;0.77;;
18320;SDS011;54904;54.350;18.664;2023-10-13T01:05:23;0.73;;;0.67;;
18320;SDS011;54904;54.350;18.664;2023-10-13T01:07:50;0.70;;;0.70;;
18320;SDS011;54904;54.350;18.664;2023-10-13T01:10:19;1.30;;;0.90;;
18320;SDS011;54904;54.350;18.664;2023-10-13T01:12:51;0.70;;;0.70;;
18320;SDS011;54904;54.350;18.664;2023-10-13T01:15:19;1.90;;;0.90;;
18320;SDS011;54904;54.350;18.664;2023-10-13T01:17:47;2.33;;;1.17;;
18320;SDS011;54904;54.350;18.664;2023-10-13T01:20:14;1.70;;;0.90;;
18320;SDS011;54904;54.350;18.664;2023-10-13T01:22:51;1.23;;;0.80;;
18320;SDS011;54904;54.350;18.664;2023-10-13T01:25:23;0.83;;;0.83;;
18320;SDS011;54904;54.350;18.664;2023-10-13T01:27:53;0.90;;;0.70;;
18320;SDS011;54904;54.350;18.664;2023-10-13T01:30:19;0.80;;;0.80;;
18320;SDS011;54904;54.350;18.664;2023-10-13T01:32:51;2.80;;;1.00;;
18320;SDS011;54904;54.350;18.664;2023-10-13T01:35:19;1.77;;;0.60;;
18320;SDS011;54904;54.350;18.664;2023-10-13T01:37:50;1.73;;;0.90;;
18320;SDS011;54904;54.350;18.664;2023-10-13T01:40:16;1.77;;;1.20;;
18320;SDS011;54904;54.350;18.664;2023-10-13T01:42:47;1.63;;;1.00;;
18320;SDS011;54904;54.350;18.664;2023-10-13T01:45:20;2.27;;;1.00;;
18320;SDS011;54904;54.350;18.664;2023-10-13T01:47:51;0.97;;;0.87;;
18320;SDS011;54904;54.350;18.664;2023-10-13T01:50:17;1.37;;;0.93;;
18320;SDS011;54904;54.350;18.664;2023-10-13T01:52:46;1.33;;;0.97;;
18320;SDS011;54904;54.350;18.664;2023-10-13T01:55:12;2.90;;;1.07;;
18320;SDS011;54904;54.350;18.664;2023-10-13T01:57:40;1.93;;;0.90;;
18320;SDS011;54904;54.350;18.664;2023-10-13T02:00:09;1.87;;;1.20;;
18320;SDS011;54904;54.350;18.664;2023-10-13T02:02:44;1.37;;;1.00;;
18320;SDS011;54904;54.350;18.664;2023-10-13T02:05:10;5.17;;;1.50;;
18320;SDS011;54904;54.350;18.664;2023-10-13T02:07:41;2.30;;;1.10;;
18320;SDS011;54904;54.350;18.664;2023-10-13T02:10:10;2.40;;;1.20;;
18320;SDS011;54904;54.350;18.664;2023-10-13T02:12:39;2.97;;;1.40;;
18320;SDS011;54904;54.350;18.664;2023-10-13T02:15:09;1.50;;;1.17;;
18320;SDS011;54904;54.350;18.664;2023-10-13T02:17:45;2.10;;;1.17;;
18320;SDS011;54904;54.350;18.664;2023-10-13T02:20:16;2.37;;;1.10;;
18320;SDS011;54904;54.350;18.664;2023-10-13T02:22:47;1.57;;;1.10;;
18320;SDS011;54904;54.350;18.664;2023-10-13T02:25:14;1.13;;;1.00;;
18320;SDS011;54904;54.350;18.664;2023-10-13T02:28:00;1.40;;;1.03;;
18320;SDS011;54904;54.350;18.664;2023-10-13T02:30:27;1.43;;;1.20;;
18320;SDS011;54904;54.350;18.664;2023-10-13T02:32:54;1.60;;;1.20;;
18320;SDS011;54904;54.350;18.664;2023-10-13T02:35:21;3.37;;;1.30;;
18320;SDS011;54904;54.350;18.664;2023-10-13T02:37:56;1.50;;;1.40;;
18320;SDS011;54904;54.350;18.664;2023-10-13T02:40:34;1.27;;;1.10;;
18320;SDS011;54904;54.350;18.664;2023-10-13T02:43:00;1.93;;;1.30;;
18320;SDS011;54904;54.350;18.664;2023-10-13T02:45:33;2.27;;;1.27;;
18320;SDS011;54904;54.350;18.664;2023-10-13T02:48:02;2.17;;;1.20;;
18320;SDS011;54904;54.350;18.664;2023-10-13T02:50:42;1.27;;;1.17;;
18320;SDS011;54904;54.350;18.664;2023-10-13T02:53:10;1.60;;;0.90;;
18320;SDS011;54904;54.350;18.664;2023-10-13T02:55:50;3.00;;;1.10;;
18320;SDS011;54904;54.350;18.664;2023-10-13T02:58:17;4.43;;;1.37;;
18320;SDS011;54904;54.350;18.664;2023-10-13T03:00:47;0.90;;;0.83;;
18320;SDS011;54904;54.350;18.664;2023-10-13T03:03:13;2.03;;;1.13;;
18320;SDS011;54904;54.350;18.664;2023-10-13T03:05:44;1.60;;;0.90;;
18320;SDS011;54904;54.350;18.664;2023-10-13T03:08:13;2.20;;;1.20;;
18320;SDS011;54904;54.350;18.664;2023-10-13T03:10:51;4.63;;;1.40;;
18320;SDS011;54904;54.350;18.664;2023-10-13T03:13:19;1.67;;;1.10;;
18320;SDS011;54904;54.350;18.664;2023-10-13T03:15:48;1.87;;;1.30;;
18320;SDS011;54904;54.350;18.664;2023-10-13T03:18:15;1.20;;;0.97;;
18320;SDS011;54904;54.350;18.664;2023-10-13T03:20:43;2.03;;;0.87;;
18320;SDS011;54904;54.350;18.664;2023-10-13T03:23:16;2.67;;;1.20;;
18320;SDS011;54904;54.350;18.664;2023-10-13T03:25:42;1.63;;;1.00;;
18320;SDS011;54904;54.350;18.664;2023-10-13T03:28:14;1.37;;;1.00;;
18320;SDS011;54904;54.350;18.664;2023-10-13T03:30:43;3.00;;;1.30;;
18320;SDS011;54904;54.350;18.664;2023-10-13T03:33:11;2.57;;;1.10;;
18320;SDS011;54904;54.350;18.664;2023-10-13T03:35:39;1.50;;;0.87;;
18320;SDS011;54904;54.350;18.664;2023-10-13T03:38:09;2.03;;;1.10;;
18320;SDS011;54904;54.350;18.664;2023-10-13T03:40:43;1.17;;;0.93;;
18320;SDS011;54904;54.350;18.664;2023-10-13T03:43:32;1.77;;;1.20;;
18320;SDS011;54904;54.350;18.664;2023-10-13T03:46:10;1.57;;;0.90;;
18320;SDS011;54904;54.350;18.664;2023-10-13T03:48:38;3.03;;;1.10;;
18320;SDS011;54904;54.350;18.664;2023-10-13T03:51:17;1.83;;;1.33;;
18320;SDS011;54904;54.350;18.664;2023-10-13T03:53:44;1.37;;;1.13;;
18320;SDS011;54904;54.350;18.664;2023-10-13T03:56:19;2.03;;;1.10;;
18320;SDS011;54904;54.350;18.664;2023-10-13T03:59:07;2.00;;;1.13;;
18320;SDS011;54904;54.350;18.664;2023-10-13T04:01:42;1.17;;;1.03;;
18320;SDS011;54904;54.350;18.664;2023-10-13T04:04:16;3.37;;;1.10;;
18320;SDS011;54904;54.350;18.664;2023-10-13T04:06:59;2.03;;;1.20;;
18320;SDS011;54904;54.350;18.664;2023-10-13T04:09:52;1.40;;;1.17;;
18320;SDS011;54904;54.350;18.664;2023-10-13T04:12:35;3.70;;;1.30;;
18320;SDS011;54904;54.350;18.664;2023-10-13T04:15:20;2.00;;;1.10;;
18320;SDS011;54904;54.350;18.664;2023-10-13T04:18:02;1.70;;;1.07;;
18320;SDS011;54904;54.350;18.664;2023-10-13T04:20:41;2.90;;;1.10;;
18320;SDS011;54904;54.350;18.664;2023-10-13T04:23:12;4.50;;;1.53;;
18320;SDS011;54904;54.350;18.664;2023-10-13T04:25:47;0.90;;;0.77;;
18320;SDS011;54904;54.350;18.664;2023-10-13T04:28:46;1.53;;;1.10;;
18320;SDS011;54904;54.350;18.664;2023-10-13T04:31:18;1.27;;;0.83;;
18320;SDS011;54904;54.350;18.664;2023-10-13T04:34:11;1.87;;;1.07;;
18320;SDS011;54904;54.350;18.664;2023-10-13T04:36:54;1.47;;;0.90;;
18320;SDS011;54904;54.350;18.664;2023-10-13T04:39:43;1.30;;;0.80;;
18320;SDS011;54904;54.350;18.664;2023-10-13T04:42:09;1.87;;;0.97;;
18320;SDS011;54904;54.350;18.664;2023-10-13T04:44:52;1.90;;;0.80;;
18320;SDS011;54904;54.350;18.664;2023-10-13T04:47:26;1.40;;;0.87;;
18320;SDS011;54904;54.350;18.664;2023-10-13T04:49:55;1.03;;;0.80;;
18320;SDS011;54904;54.350;18.664;2023-10-13T04:52:30;1.17;;;0.80;;
18320;SDS011;54904;54.350;18.664;2023-10-13T04:55:26;2.07;;;1.20;;
18320;SDS011;54904;54.350;18.664;2023-10-13T04:58:08;1.47;;;1.30;;
18320;SDS011;54904;54.350;18.664;2023-10-13T05:01:00;2.20;;;1.30;;
18320;SDS011;54904;54.350;18.664;2023-10-13T05:04:04;1.47;;;1.37;;
18320;SDS011;54904;54.350;18.664;2023-10-13T05:06:55;1.70;;;1.23;;
18320;SDS011;54904;54.350;18.664;2023-10-13T05:09:42;2.43;;;1.20;;
18320;SDS011;54904;54.350;18.664;2023-10-13T05:12:26;2.07;;;1.33;;
18320;SDS011;54904;54.350;18.664;2023-10-13T05:15:11;1.00;;;1.00;;
18320;SDS011;54904;54.350;18.664;2023-10-13T05:17:55;2.80;;;1.03;;
18320;SDS011;54904;54.350;18.664;2023-10-13T05:20:40;1.23;;;1.03;;
18320;SDS011;54904;54.350;18.664;2023-10-13T05:23:35;4.00;;;1.50;;
18320;SDS011;54904;54.350;18.664;2023-10-13T05:26:21;1.97;;;1.30;;
18320;SDS011;54904;54.350;18.664;2023-10-13T05:29:06;2.23;;;1.30;;
18320;SDS011;54904;54.350;18.664;2023-10-13T05:31:50;1.47;;;1.30;;
18320;SDS011;54904;54.350;18.664;2023-10-13T05:34:35;1.20;;;1.10;;
18320;SDS011;54904;54.350;18.664;2023-10-13T05:37:19;2.40;;;1.23;;
18320;SDS011;54904;54.350;18.664;2023-10-13T05:40:06;0.97;;;0.97;;
18320;SDS011;54904;54.350;18.664;2023-10-13T05:42:53;2.20;;;1.07;;
18320;SDS011;54904;54.350;18.664;2023-10-13T05:45:40;2.07;;;1.20;;
18320;SDS011;54904;54.350;18.664;2023-10-13T05:48:40;0.90;;;0.90;;
18320;SDS011;54904;54.350;18.664;2023-10-13T05:51:34;1.80;;;1.13;;
18320;SDS011;54904;54.350;18.664;2023-10-13T05:54:13;1.33;;;1.20;;
18320;SDS011;54904;54.350;18.664;2023-10-13T05:56:58;1.53;;;0.83;;
18320;SDS011;54904;54.350;18.664;2023-10-13T05:59:49;1.23;;;0.97;;
18320;SDS011;54904;54.350;18.664;2023-10-13T06:02:33;1.33;;;0.80;;
18320;SDS011;54904;54.350;18.664;2023-10-13T06:05:18;1.17;;;1.03;;
18320;SDS011;54904;54.350;18.664;2023-10-13T06:08:01;1.00;;;1.00;;
18320;SDS011;54904;54.350;18.664;2023-10-13T06:10:48;0.70;;;0.70;;
18320;SDS011;54904;54.350;18.664;2023-10-13T06:13:33;0.90;;;0.90;;
18320;SDS011;54904;54.350;18.664;2023-10-13T06:16:19;1.17;;;1.00;;
18320;SDS011;54904;54.350;18.664;2023-10-13T06:19:03;1.50;;;1.17;;
18320;SDS011;54904;54.350;18.664;2023-10-13T06:21:48;1.67;;;1.10;;
18320;SDS011;54904;54.350;18.664;2023-10-13T06:24:33;0.77;;;0.77;;
18320;SDS011;54904;54.350;18.664;2023-10-13T06:27:17;1.43;;;0.90;;
18320;SDS011;54904;54.350;18.664;2023-10-13T06:30:02;1.20;;;1.10;;
18320;SDS011;54904;54.350;18.664;2023-10-13T06:32:31;1.53;;;1.40;;
18320;SDS011;54904;54.350;18.664;2023-10-13T06:34:58;2.10;;;1.27;;
18320;SDS011;54904;54.350;18.664;2023-10-13T06:37:30;1.90;;;1.40;;
18320;SDS011;54904;54.350;18.664;2023-10-13T06:39:59;1.50;;;1.40;;
18320;SDS011;54904;54.350;18.664;2023-10-13T06:42:31;1.70;;;1.60;;
18320;SDS011;54904;54.350;18.664;2023-10-13T06:44:59;1.87;;;1.30;;
18320;SDS011;54904;54.350;18.664;2023-10-13T06:47:35;1.60;;;1.40;;
18320;SDS011;54904;54.350;18.664;2023-10-13T06:50:06;1.67;;;1.50;;
18320;SDS011;54904;54.350;18.664;2023-10-13T06:52:41;2.10;;;1.80;;
18320;SDS011;54904;54.350;18.664;2023-10-13T06:55:08;3.47;;;2.17;;
18320;SDS011;54904;54.350;18.664;2023-10-13T06:57:36;1.73;;;1.53;;
18320;SDS011;54904;54.350;18.664;2023-10-13T07:00:08;3.77;;;2.20;;
18320;SDS011;54904;54.350;18.664;2023-10-13T07:02:46;5.03;;;2.33;;
18320;SDS011;54904;54.350;18.664;2023-10-13T07:05:18;4.80;;;2.40;;
18320;SDS011;54904;54.350;18.664;2023-10-13T07:07:45;4.27;;;2.43;;
18320;SDS011;54904;54.350;18.664;2023-10-13T07:10:13;6.33;;;2.30;;
18320;SDS011;54904;54.350;18.664;2023-10-13T07:12:42;2.50;;;1.90;;
18320;SDS011;54904;54.350;18.664;2023-10-13T07:15:09;2.90;;;1.93;;
18320;SDS011;54904;54.350;18.664;2023-10-13T07:17:46;2.13;;;1.83;;
18320;SDS011;54904;54.350;18.664;2023-10-13T07:20:19;3.80;;;2.53;;
18320;SDS011;54904;54.350;18.664;2023-10-13T07:22:49;3.57;;;2.47;;
18320;SDS011;54904;54.350;18.664;2023-10-13T07:25:27;5.87;;;3.37;;
18320;SDS011;54904;54.350;18.664;2023-10-13T07:27:58;6.70;;;3.43;;
18320;SDS011;54904;54.350;18.664;2023-10-13T07:30:25;6.23;;;2.80;;
18320;SDS011;54904;54.350;18.664;2023-10-13T07:32:54;4.53;;;2.67;;
18320;SDS011;54904;54.350;18.664;2023-10-13T07:35:24;6.30;;;3.00;;
18320;SDS011;54904;54.350;18.664;2023-10-13T07:37:52;3.30;;;2.60;;
18320;SDS011;54904;54.350;18.664;2023-10-13T07:40:20;4.60;;;2.23;;
18320;SDS011;54904;54.350;18.664;2023-10-13T07:43:05;5.80;;;2.47;;
18320;SDS011;54904;54.350;18.664;2023-10-13T07:45:37;4.53;;;2.67;;
18320;SDS011;54904;54.350;18.664;2023-10-13T07:48:07;4.60;;;2.37;;
18320;SDS011;54904;54.350;18.664;2023-10-13T07:50:42;2.53;;;2.00;;
18320;SDS011;54904;54.350;18.664;2023-10-13T07:53:10;5.97;;;2.30;;
18320;SDS011;54904;54.350;18.664;2023-10-13T07:55:47;3.60;;;2.20;;
18320;SDS011;54904;54.350;18.664;2023-10-13T07:58:20;3.27;;;2.03;;
18320;SDS011;54904;54.350;18.664;2023-10-13T08:00:50;3.07;;;1.77;;
18320;SDS011;54904;54.350;18.664;2023-10-13T08:03:33;3.57;;;2.43;;
18320;SDS011;54904;54.350;18.664;2023-10-13T08:06:17;2.90;;;1.90;;
18320;SDS011;54904;54.350;18.664;2023-10-13T08:08:51;2.70;;;2.07;;
18320;SDS011;54904;54.350;18.664;2023-10-13T08:11:32;5.03;;;2.60;;
18320;SDS011;54904;54.350;18.664;2023-10-13T08:14:02;4.30;;;2.20;;
18320;SDS011;54904;54.350;18.664;2023-10-13T08:16:47;6.87;;;2.50;;
18320;SDS011;54904;54.350;18.664;2023-10-13T08:19:26;4.07;;;2.23;;
18320;SDS011;54904;54.350;18.664;2023-10-13T08:22:05;3.80;;;2.43;;
18320;SDS011;54904;54.350;18.664;2023-10-13T08:24:49;5.00;;;2.40;;
18320;SDS011;54904;54.350;18.664;2023-10-13T08:27:35;4.23;;;2.50;;
18320;SDS011;54904;54.350;18.664;2023-10-13T08:30:17;5.50;;;2.60;;
18320;SDS011;54904;54.350;18.664;2023-10-13T08:32:54;7.83;;;2.73;;
18320;SDS011;54904;54.350;18.664;2023-10-13T08:35:23;5.57;;;2.60;;
18320;SDS011;54904;54.350;18.664;2023-10-13T08:38:00;4.90;;;2.57;;
18320;SDS011;54904;54.350;18.664;2023-10-13T08:40:42;3.20;;;2.03;;
18320;SDS011;54904;54.350;18.664;2023-10-13T08:43:42;3.77;;;1.80;;
18320;SDS011;54904;54.350;18.664;2023-10-13T08:46:16;4.33;;;2.10;;
18320;SDS011;54904;54.350;18.664;2023-10-13T08:48:55;1.80;;;1.70;;
18320;SDS011;54904;54.350;18.664;2023-10-13T08:51:36;2.60;;;2.10;;
18320;SDS011;54904;54.350;18.664;2023-10-13T08:54:15;2.63;;;1.87;;
18320;SDS011;54904;54.350;18.664;2023-10-13T08:56:59;3.77;;;2.40;;
18320;SDS011;54904;54.350;18.664;2023-10-13T08:59:45;3.90;;;2.10;;
18320;SDS011;54904;54.350;18.664;2023-10-13T09:02:26;3.57;;;1.90;;
18320;SDS011;54904;54.350;18.664;2023-10-13T09:05:07;7.10;;;2.40;;
18320;SDS011;54904;54.350;18.664;2023-10-13T09:07:57;3.60;;;2.40;;
18320;SDS011;54904;54.350;18.664;2023-10-13T09:10:34;6.90;;;2.70;;
18320;SDS011;54904;54.350;18.664;2023-10-13T09:13:09;7.67;;;3.20;;
18320;SDS011;54904;54.350;18.664;2023-10-13T09:15:44;5.60;;;2.70;;
18320;SDS011;54904;54.350;18.664;2023-10-13T09:18:26;4.60;;;2.27;;
18320;SDS011;54904;54.350;18.664;2023-10-13T09:21:11;8.90;;;2.80;;
18320;SDS011;54904;54.350;18.664;2023-10-13T09:23:58;4.60;;;2.90;;
18320;SDS011;54904;54.350;18.664;2023-10-13T09:26:42;6.53;;;2.90;;
18320;SDS011;54904;54.350;18.664;2023-10-13T09:29:16;3.77;;;2.07;;
18320;SDS011;54904;54.350;18.664;2023-10-13T09:31:47;6.47;;;2.87;;
18320;SDS011;54904;54.350;18.664;2023-10-13T09:34:27;9.33;;;2.73;;
18320;SDS011;54904;54.350;18.664;2023-10-13T09:36:57;8.60;;;2.60;;
18320;SDS011;54904;54.350;18.664;2023-10-13T09:39:26;6.13;;;2.93;;
18320;SDS011;54904;54.350;18.664;2023-10-13T09:42:13;7.27;;;3.30;;
18320;SDS011;54904;54.350;18.664;2023-10-13T09:44:44;6.67;;;3.13;;
18320;SDS011;54904;54.350;18.664;2023-10-13T09:47:20;8.50;;;3.17;;
18320;SDS011;54904;54.350;18.664;2023-10-13T09:49:57;10.27;;;3.60;;
18320;SDS011;54904;54.350;18.664;2023-10-13T09:52:30;5.53;;;3.07;;
18320;SDS011;54904;54.350;18.664;2023-10-13T09:55:03;3.77;;;2.63;;
18320;SDS011;54904;54.350;18.664;2023-10-13T09:57:40;5.20;;;2.57;;
18320;SDS011;54904;54.350;18.664;2023-10-13T10:00:11;8.27;;;3.43;;
18320;SDS011;54904;54.350;18.664;2023-10-13T10:02:55;8.03;;;3.03;;
18320;SDS011;54904;54.350;18.664;2023-10-13T10:05:39;4.90;;;2.80;;
18320;SDS011;54904;54.350;18.664;2023-10-13T10:08:23;6.60;;;2.83;;
18320;SDS011;54904;54.350;18.664;2023-10-13T10:14:28;7.50;;;2.80;;
18320;SDS011;54904;54.350;18.664;2023-10-13T10:17:21;7.23;;;2.83;;
18320;SDS011;54904;54.350;18.664;2023-10-13T10:19:57;5.30;;;2.70;;
18320;SDS011;54904;54.350;18.664;2023-10-13T10:22:32;5.97;;;2.60;;
18320;SDS011;54904;54.350;18.664;2023-10-13T10:25:02;4.93;;;2.43;;
18320;SDS011;54904;54.350;18.664;2023-10-13T10:27:33;7.03;;;2.83;;
18320;SDS011;54904;54.350;18.664;2023-10-13T10:30:01;4.80;;;2.50;;
18320;SDS011;54904;54.350;18.664;2023-10-13T10:32:35;8.43;;;3.30;;
18320;SDS011;54904;54.350;18.664;2023-10-13T10:35:06;5.73;;;2.47;;
18320;SDS011;54904;54.350;18.664;2023-10-13T10:37:56;9.47;;;3.20;;
18320;SDS011;54904;54.350;18.664;2023-10-13T10:40:48;5.23;;;2.80;;
18320;SDS011;54904;54.350;18.664;2023-10-13T10:43:26;7.07;;;2.63;;
18320;SDS011;54904;54.350;18.664;2023-10-13T10:46:07;6.60;;;2.80;;
18320;SDS011;54904;54.350;18.664;2023-10-13T10:48:36;8.10;;;3.03;;
18320;SDS011;54904;54.350;18.664;2023-10-13T10:51:08;6.13;;;2.77;;
18320;SDS011;54904;54.350;18.664;2023-10-13T10:53:46;3.23;;;2.23;;
18320;SDS011;54904;54.350;18.664;2023-10-13T10:56:15;3.30;;;1.90;;
18320;SDS011;54904;54.350;18.664;2023-10-13T10:58:49;2.80;;;2.00;;
18320;SDS011;54904;54.350;18.664;2023-10-13T11:01:21;5.23;;;2.10;;
18320;SDS011;54904;54.350;18.664;2023-10-13T11:03:55;3.63;;;1.70;;
18320;SDS011;54904;54.350;18.664;2023-10-13T11:06:33;5.40;;;1.90;;
18320;SDS011;54904;54.350;18.664;2023-10-13T11:09:04;4.30;;;1.60;;
18320;SDS011;54904;54.350;18.664;2023-10-13T11:11:44;4.97;;;1.67;;
18320;SDS011;54904;54.350;18.664;2023-10-13T11:14:22;3.03;;;1.53;;
18320;SDS011;54904;54.350;18.664;2023-10-13T11:16:50;3.20;;;1.60;;
18320;SDS011;54904;54.350;18.664;2023-10-13T11:19:19;3.90;;;1.93;;
18320;SDS011;54904;54.350;18.664;2023-10-13T11:21:51;6.13;;;2.10;;
18320;SDS011;54904;54.350;18.664;2023-10-13T11:24:19;3.97;;;2.27;;
18320;SDS011;54904;54.350;18.664;2023-10-13T11:26:47;7.87;;;3.03;;
18320;SDS011;54904;54.350;18.664;2023-10-13T11:29:30;7.77;;;3.30;;
18320;SDS011;54904;54.350;18.664;2023-10-13T11:31:59;7.97;;;3.03;;
18320;SDS011;54904;54.350;18.664;2023-10-13T11:34:28;7.67;;;2.87;;
18320;SDS011;54904;54.350;18.664;2023-10-13T11:37:05;9.73;;;2.97;;
18320;SDS011;54904;54.350;18.664;2023-10-13T11:39:46;7.87;;;2.80;;
18320;SDS011;54904;54.350;18.664;2023-10-13T11:42:13;4.73;;;2.47;;
18320;SDS011;54904;54.350;18.664;2023-10-13T11:44:44;5.37;;;2.13;;
18320;SDS011;54904;54.350;18.664;2023-10-13T11:47:11;4.67;;;2.10;;
18320;SDS011;54904;54.350;18.664;2023-10-13T11:49:57;5.40;;;2.63;;
18320;SDS011;54904;54.350;18.664;2023-10-13T11:52:24;4.77;;;2.40;;
18320;SDS011;54904;54.350;18.664;2023-10-13T11:54:55;4.80;;;1.90;;
18320;SDS011;54904;54.350;18.664;2023-10-13T11:57:22;4.67;;;2.77;;
18320;SDS011;54904;54.350;18.664;2023-10-13T11:59:51;5.67;;;3.00;;
18320;SDS011;54904;54.350;18.664;2023-10-13T12:02:41;6.80;;;3.27;;
18320;SDS011;54904;54.350;18.664;2023-10-13T12:05:26;4.77;;;2.90;;
18320;SDS011;54904;54.350;18.664;2023-10-13T12:08:03;8.53;;;3.10;;
18320;SDS011;54904;54.350;18.664;2023-10-13T12:10:32;7.20;;;3.63;;
18320;SDS011;54904;54.350;18.664;2023-10-13T12:13:04;6.63;;;3.20;;
18320;SDS011;54904;54.350;18.664;2023-10-13T12:15:37;7.20;;;3.40;;
18320;SDS011;54904;54.350;18.664;2023-10-13T12:18:14;7.60;;;3.67;;
18320;SDS011;54904;54.350;18.664;2023-10-13T12:20:42;7.97;;;4.10;;
18320;SDS011;54904;54.350;18.664;2023-10-13T12:23:11;13.70;;;5.50;;
18320;SDS011;54904;54.350;18.664;2023-10-13T12:25:42;9.13;;;4.10;;
18320;SDS011;54904;54.350;18.664;2023-10-13T12:28:25;8.73;;;3.83;;
18320;SDS011;54904;54.350;18.664;2023-10-13T12:30:55;6.80;;;3.60;;
18320;SDS011;54904;54.350;18.664;2023-10-13T12:33:24;6.87;;;3.60;;
18320;SDS011;54904;54.350;18.664;2023-10-13T12:35:58;7.97;;;3.73;;
18320;SDS011;54904;54.350;18.664;2023-10-13T12:38:49;7.63;;;4.03;;
18320;SDS011;54904;54.350;18.664;2023-10-13T12:41:33;6.07;;;3.90;;
18320;SDS011;54904;54.350;18.664;2023-10-13T12:44:18;8.07;;;4.30;;
18320;SDS011;54904;54.350;18.664;2023-10-13T12:47:03;9.90;;;3.80;;
18320;SDS011;54904;54.350;18.664;2023-10-13T12:49:48;8.17;;;3.53;;
18320;SDS011;54904;54.350;18.664;2023-10-13T12:52:17;5.17;;;3.40;;
18320;SDS011;54904;54.350;18.664;2023-10-13T12:54:44;8.83;;;4.13;;
18320;SDS011;54904;54.350;18.664;2023-10-13T12:57:24;8.00;;;3.93;;
18320;SDS011;54904;54.350;18.664;2023-10-13T12:59:51;6.67;;;3.70;;
18320;SDS011;54904;54.350;18.664;2023-10-13T13:02:20;7.13;;;3.77;;
18320;SDS011;54904;54.350;18.664;2023-10-13T13:04:50;8.17;;;3.50;;
18320;SDS011;54904;54.350;18.664;2023-10-13T13:07:22;8.33;;;3.63;;
18320;SDS011;54904;54.350;18.664;2023-10-13T13:09:54;8.47;;;4.57;;
18320;SDS011;54904;54.350;18.664;2023-10-13T13:12:25;6.47;;;3.57;;
18320;SDS011;54904;54.350;18.664;2023-10-13T13:14:53;8.80;;;4.50;;
18320;SDS011;54904;54.350;18.664;2023-10-13T13:17:22;7.87;;;3.90;;
18320;SDS011;54904;54.350;18.664;2023-10-13T13:19:49;6.57;;;4.10;;
18320;SDS011;54904;54.350;18.664;2023-10-13T13:22:16;10.13;;;4.13;;
18320;SDS011;54904;54.350;18.664;2023-10-13T13:24:43;6.33;;;3.77;;
18320;SDS011;54904;54.350;18.664;2023-10-13T13:27:13;5.60;;;3.50;;
18320;SDS011;54904;54.350;18.664;2023-10-13T13:29:45;10.27;;;4.60;;
18320;SDS011;54904;54.350;18.664;2023-10-13T13:32:12;8.37;;;3.87;;
18320;SDS011;54904;54.350;18.664;2023-10-13T13:34:45;7.47;;;3.80;;
18320;SDS011;54904;54.350;18.664;2023-10-13T13:37:20;10.20;;;4.63;;
18320;SDS011;54904;54.350;18.664;2023-10-13T13:39:47;4.83;;;4.00;;
18320;SDS011;54904;54.350;18.664;2023-10-13T13:42:18;6.53;;;4.03;;
18320;SDS011;54904;54.350;18.664;2023-10-13T13:44:45;6.60;;;4.17;;
18320;SDS011;54904;54.350;18.664;2023-10-13T13:47:13;5.47;;;3.67;;
18320;SDS011;54904;54.350;18.664;2023-10-13T13:49:40;8.77;;;4.87;;
18320;SDS011;54904;54.350;18.664;2023-10-13T13:52:17;8.43;;;5.07;;
18320;SDS011;54904;54.350;18.664;2023-10-13T13:54:47;10.73;;;5.50;;
18320;SDS011;54904;54.350;18.664;2023-10-13T13:57:14;7.27;;;4.70;;
18320;SDS011;54904;54.350;18.664;2023-10-13T13:59:42;13.40;;;6.23;;
18320;SDS011;54904;54.350;18.664;2023-10-13T14:02:10;9.63;;;5.80;;
18320;SDS011;54904;54.350;18.664;2023-10-13T14:04:45;11.67;;;6.77;;
18320;SDS011;54904;54.350;18.664;2023-10-13T14:07:15;9.77;;;5.90;;
18320;SDS011;54904;54.350;18.664;2023-10-13T14:09:46;12.17;;;6.50;;
18320;SDS011;54904;54.350;18.664;2023-10-13T14:12:17;9.83;;;5.80;;
18320;SDS011;54904;54.350;18.664;2023-10-13T14:15:01;15.43;;;6.30;;
18320;SDS011;54904;54.350;18.664;2023-10-13T14:17:28;12.37;;;7.40;;
18320;SDS011;54904;54.350;18.664;2023-10-13T14:20:00;11.73;;;7.20;;
18320;SDS011;54904;54.350;18.664;2023-10-13T14:22:35;10.43;;;6.70;;
18320;SDS011;54904;54.350;18.664;2023-10-13T14:25:03;10.20;;;6.47;;
18320;SDS011;54904;54.350;18.664;2023-10-13T14:27:34;13.57;;;7.30;;
18320;SDS011;54904;54.350;18.664;2023-10-13T14:30:01;12.00;;;6.73;;
18320;SDS011;54904;54.350;18.664;2023-10-13T14:32:28;12.97;;;6.50;;
18320;SDS011;54904;54.350;18.664;2023-10-13T14:34:56;11.37;;;6.80;;
18320;SDS011;54904;54.350;18.664;2023-10-13T14:37:25;16.73;;;9.23;;
18320;SDS011;54904;54.350;18.664;2023-10-13T14:39:56;15.30;;;8.37;;
18320;SDS011;54904;54.350;18.664;2023-10-13T14:42:25;16.63;;;8.73;;
18320;SDS011;54904;54.350;18.664;2023-10-13T14:44:52;12.30;;;7.40;;
18320;SDS011;54904;54.350;18.664;2023-10-13T14:47:22;12.13;;;7.13;;
18320;SDS011;54904;54.350;18.664;2023-10-13T14:49:51;14.67;;;8.20;;
18320;SDS011;54904;54.350;18.664;2023-10-13T14:52:21;15.53;;;7.17;;
18320;SDS011;54904;54.350;18.664;2023-10-13T14:54:48;14.83;;;8.43;;
18320;SDS011;54904;54.350;18.664;2023-10-13T14:57:21;13.13;;;7.50;;
18320;SDS011;54904;54.350;18.664;2023-10-13T14:59:51;13.63;;;7.50;;
18320;SDS011;54904;54.350;18.664;2023-10-13T15:02:18;18.47;;;8.77;;
18320;SDS011;54904;54.350;18.664;2023-10-13T15:04:46;13.37;;;8.00;;
18320;SDS011;54904;54.350;18.664;2023-10-13T15:07:14;13.57;;;7.60;;
18320;SDS011;54904;54.350;18.664;2023-10-13T15:09:42;15.13;;;8.37;;
18320;SDS011;54904;54.350;18.664;2023-10-13T15:12:09;26.00;;;10.10;;
18320;SDS011;54904;54.350;18.664;2023-10-13T15:14:38;13.43;;;7.93;;
18320;SDS011;54904;54.350;18.664;2023-10-13T15:17:07;15.97;;;8.83;;
18320;SDS011;54904;54.350;18.664;2023-10-13T15:19:35;14.73;;;8.23;;
18320;SDS011;54904;54.350;18.664;2023-10-13T15:22:04;15.63;;;8.63;;